createdAt,value
2023-04-11T00:01:34.383Z,95511.03
2023-04-11T00:03:38.961Z,95543.28
2023-04-11T00:05:41.904Z,95366.06
2023-04-11T00:07:44.639Z,95527.44
2023-04-11T00:09:47.357Z,95534.44
2023-04-11T00:11:50.082Z,95497.97
2023-04-11T00:13:57.521Z,95390.44
2023-04-11T00:16:02.685Z,95471.66
2023-04-11T00:18:06.482Z,95365.72
2023-04-11T00:20:11.493Z,95480.50
2023-04-11T00:22:15.640Z,95391.22
2023-04-11T00:24:18.488Z,95373.91
2023-04-11T00:26:22.331Z,95434.59
2023-04-11T00:28:25.435Z,95488.06
2023-04-11T00:30:29.570Z,95307.97
2023-04-11T00:32:32.327Z,95442.56
2023-04-11T00:34:35.158Z,95421.63
2023-04-11T00:36:37.937Z,95410.81
2023-04-11T00:38:42.234Z,95473.75
2023-04-11T00:40:45.480Z,95476.50
2023-04-11T00:42:48.932Z,95451.28
2023-04-11T00:44:53.147Z,95485.19
2023-04-11T00:46:57.567Z,95481.44
2023-04-11T00:49:00.883Z,95427.38
2023-04-11T00:51:03.894Z,95454.78
2023-04-11T00:53:06.806Z,95457.16
2023-04-11T00:55:11.607Z,95400.41
2023-04-11T00:57:14.507Z,95371.63
2023-04-11T00:59:18.439Z,95443.69
2023-04-11T01:01:25.089Z,95264.00
2023-04-11T01:03:30.205Z,95308.81
2023-04-11T01:05:35.743Z,95458.50
2023-04-11T01:07:41.165Z,95459.66
2023-04-11T01:09:45.204Z,95475.00
2023-04-11T01:11:49.259Z,95468.00
2023-04-11T01:13:52.744Z,95477.47
2023-04-11T01:15:55.521Z,95388.41
2023-04-11T01:18:02.261Z,95491.72
2023-04-11T01:20:09.286Z,95354.34
2023-04-11T01:22:14.789Z,95500.66
2023-04-11T01:24:19.498Z,95486.38
2023-04-11T01:26:23.037Z,95478.81
2023-04-11T01:28:25.800Z,95479.50
2023-04-11T01:30:28.688Z,95473.50
2023-04-11T01:32:31.491Z,95485.88
2023-04-11T01:34:36.313Z,95495.06
2023-04-11T01:36:39.502Z,95486.19
2023-04-11T01:38:42.454Z,95485.66
2023-04-11T01:40:47.723Z,95397.91
2023-04-11T01:42:51.794Z,95477.31
2023-04-11T01:44:57.551Z,95379.03
2023-04-11T01:47:00.858Z,95482.13
2023-04-11T01:49:04.399Z,95361.56
2023-04-11T01:51:08.425Z,95479.69
2023-04-11T01:53:11.223Z,95491.00
2023-04-11T01:55:14.014Z,95510.09
2023-04-11T01:57:19.205Z,95485.34
2023-04-11T01:59:22.848Z,95494.47
2023-04-11T02:01:26.073Z,95508.47
2023-04-11T02:03:29.109Z,95476.63
2023-04-11T02:05:32.017Z,95276.47
2023-04-11T02:07:34.823Z,95501.72
2023-04-11T02:09:37.885Z,95447.78
2023-04-11T02:11:40.952Z,95499.75
2023-04-11T02:13:45.944Z,95481.91
2023-04-11T02:15:48.892Z,95503.19
2023-04-11T02:17:54.263Z,95498.34
2023-04-11T02:19:57.482Z,95501.22
2023-04-11T02:22:00.373Z,95497.00
2023-04-11T02:24:03.134Z,95512.72
2023-04-11T02:26:06.159Z,95512.81
2023-04-11T02:28:08.910Z,95491.91
2023-04-11T02:30:13.437Z,95506.47
2023-04-11T02:32:16.433Z,95509.38
2023-04-11T02:34:22.090Z,95509.78
2023-04-11T02:36:24.880Z,95531.38
2023-04-11T02:38:27.726Z,95527.09
2023-04-11T02:40:30.594Z,95530.53
2023-04-11T02:42:33.377Z,95528.69
2023-04-11T02:44:36.225Z,95544.41
2023-04-11T02:46:41.068Z,95094.88
2023-04-11T02:48:44.739Z,95541.28
2023-04-11T02:50:49.032Z,95479.09
2023-04-11T02:52:52.672Z,95531.47
2023-04-11T02:54:59.085Z,95537.41
2023-04-11T02:57:03.669Z,95513.84
2023-04-11T02:59:07.150Z,95459.81
2023-04-11T03:01:11.806Z,95523.78
2023-04-11T03:03:16.133Z,95533.25
2023-04-11T03:05:21.454Z,95527.19
2023-04-11T03:07:27.133Z,95502.81
2023-04-11T03:09:30.151Z,95539.81
2023-04-11T03:11:32.934Z,95494.72
2023-04-11T03:13:37.387Z,95493.25
2023-04-11T03:15:40.236Z,95520.81
2023-04-11T03:17:45.172Z,95390.91
2023-04-11T03:19:51.861Z,95503.94
2023-04-11T03:21:54.827Z,95510.41
2023-04-11T03:23:57.529Z,95500.34
2023-04-11T03:26:00.574Z,95483.81
2023-04-11T03:28:04.272Z,95494.56
2023-04-11T03:30:09.014Z,95415.00
2023-04-11T03:32:18.136Z,95500.25
2023-04-11T03:34:21.899Z,95495.66
2023-04-11T03:36:27.686Z,95496.84
2023-04-11T03:38:30.727Z,95498.91
2023-04-11T03:40:33.544Z,95508.66
2023-04-11T03:42:44.901Z,95506.81
2023-04-11T03:44:51.927Z,95518.91
2023-04-11T03:46:55.147Z,95512.78
2023-04-11T03:48:58.989Z,95521.97
2023-04-11T03:51:02.189Z,95520.91
2023-04-11T03:53:14.770Z,95491.22
2023-04-11T03:55:20.430Z,95527.38
2023-04-11T03:57:26.756Z,95534.25
2023-04-11T03:59:30.779Z,95481.78
2023-04-11T04:01:38.530Z,95528.53
2023-04-11T04:03:42.465Z,95538.66
2023-04-11T04:05:49.230Z,95532.97
2023-04-11T04:07:54.589Z,95534.69
2023-04-11T04:10:22.720Z,95527.41
2023-04-11T04:12:28.046Z,95520.97
2023-04-11T04:14:43.818Z,95526.91
2023-04-11T04:16:46.989Z,95425.75
2023-04-11T04:18:51.460Z,95518.84
2023-04-11T04:20:56.380Z,95532.88
2023-04-11T04:23:01.138Z,95507.38
2023-04-11T04:25:25.657Z,95554.28
2023-04-11T04:27:34.038Z,95551.59
2023-04-11T04:29:38.984Z,95572.34
2023-04-11T04:31:52.889Z,95521.31
2023-04-11T04:34:03.690Z,95512.31
2023-04-11T04:36:10.105Z,95574.38
2023-04-11T04:38:17.920Z,95594.81
2023-04-11T04:40:27.405Z,95599.78
2023-04-11T04:42:36.444Z,95616.50
2023-04-11T04:44:41.152Z,95576.38
2023-04-11T04:46:54.248Z,95607.44
2023-04-11T04:49:01.592Z,95612.56
2023-04-11T04:51:05.840Z,95613.78
2023-04-11T04:53:10.449Z,95596.47
2023-04-11T04:55:19.814Z,95608.91
2023-04-11T04:57:25.836Z,95613.84
2023-04-11T04:59:28.572Z,95618.63
2023-04-11T05:01:39.931Z,95631.97
2023-04-11T05:03:46.792Z,95604.53
2023-04-11T05:05:59.516Z,95620.16
2023-04-11T05:08:02.678Z,95645.47
2023-04-11T05:10:08.225Z,95656.56
2023-04-11T05:12:13.600Z,95665.66
2023-04-11T05:14:18.238Z,95670.59
2023-04-11T05:16:21.877Z,95673.41
2023-04-11T05:18:24.655Z,95640.41
2023-04-11T05:20:29.713Z,95686.34
2023-04-11T05:22:33.649Z,95689.47
2023-04-11T05:24:37.108Z,95681.94
2023-04-11T05:26:43.067Z,95686.25
2023-04-11T05:28:46.956Z,95695.19
2023-04-11T05:30:55.459Z,95691.97
2023-04-11T05:32:58.356Z,95702.31
2023-04-11T05:35:01.184Z,95661.94
2023-04-11T05:37:15.019Z,95708.16
2023-04-11T05:39:17.697Z,95719.53
2023-04-11T05:41:20.335Z,95717.81
2023-04-11T05:43:22.949Z,95667.91
2023-04-11T05:45:25.694Z,95693.50
2023-04-11T05:47:29.759Z,95691.44
2023-04-11T05:49:32.568Z,95700.09
2023-04-11T05:51:35.393Z,95694.75
2023-04-11T05:53:38.034Z,95679.94
2023-04-11T05:55:40.813Z,95682.78
2023-04-11T05:57:43.495Z,95693.81
2023-04-11T05:59:49.689Z,95697.91
2023-04-11T06:01:52.469Z,95706.88
2023-04-11T06:03:57.475Z,95713.38
2023-04-11T06:06:01.298Z,95697.53
2023-04-11T06:08:05.505Z,95705.38
2023-04-11T06:10:09.922Z,95635.19
2023-04-11T06:12:12.585Z,95721.13
2023-04-11T06:14:15.249Z,95714.16
2023-04-11T06:16:18.043Z,95718.09
2023-04-11T06:18:20.785Z,95615.09
2023-04-11T06:20:25.696Z,95704.41
2023-04-11T06:22:28.472Z,95729.81
2023-04-11T06:24:38.901Z,95730.13
2023-04-11T06:26:41.560Z,95653.94
2023-04-11T06:28:44.212Z,95764.81
2023-04-11T06:30:46.921Z,95750.97
2023-04-11T06:32:49.759Z,95717.53
2023-04-11T06:34:52.655Z,95511.25
2023-04-11T06:36:56.947Z,95662.19
2023-04-11T06:38:59.653Z,95754.69
2023-04-11T06:41:02.415Z,95764.63
2023-04-11T06:43:05.149Z,95756.13
2023-04-11T06:45:08.846Z,95767.50
2023-04-11T06:47:11.651Z,95765.38
2023-04-11T06:49:14.387Z,95762.00
2023-04-11T06:51:17.108Z,95755.72
2023-04-11T06:53:21.515Z,95714.03
2023-04-11T06:55:24.303Z,95751.63
2023-04-11T06:57:27.040Z,95752.94
2023-04-11T06:59:29.919Z,95771.03
2023-04-11T07:01:35.605Z,95757.00
2023-04-11T07:03:38.570Z,95630.38
2023-04-11T07:05:41.500Z,95751.09
2023-04-11T07:07:44.310Z,95764.44
2023-04-11T07:09:48.387Z,95757.09
2023-04-11T07:11:51.153Z,95755.50
2023-04-11T07:13:54.290Z,95775.38
2023-04-11T07:15:57.346Z,95773.00
2023-04-11T07:18:00.212Z,95776.47
2023-04-11T07:20:04.703Z,95774.25
2023-04-11T07:22:07.718Z,95783.94
2023-04-11T07:24:13.170Z,95681.88
2023-04-11T07:26:17.887Z,95781.84
2023-04-11T07:28:21.414Z,95791.63
2023-04-11T07:30:24.336Z,95793.50
2023-04-11T07:32:27.099Z,95795.94
2023-04-11T07:34:29.852Z,95783.94
2023-04-11T07:36:32.606Z,95790.00
2023-04-11T07:38:37.437Z,95791.00
2023-04-11T07:40:40.267Z,95795.72
2023-04-11T07:42:46.139Z,95792.59
2023-04-11T07:44:48.898Z,95730.66
2023-04-11T07:46:51.713Z,95793.47
2023-04-11T07:48:54.409Z,95792.91
2023-04-11T07:50:57.124Z,95803.25
2023-04-11T07:52:59.858Z,95806.94
2023-04-11T07:55:02.944Z,95755.56
2023-04-11T07:57:05.710Z,95796.31
2023-04-11T07:59:09.810Z,95780.41
2023-04-11T08:01:21.109Z,95821.28
2023-04-11T08:03:24.241Z,95819.69
2023-04-11T08:05:27.825Z,95827.09
2023-04-11T08:07:30.579Z,95825.06
2023-04-11T08:09:33.483Z,95783.84
2023-04-11T08:11:36.457Z,95824.31
2023-04-11T08:13:39.553Z,95831.22
2023-04-11T08:15:43.697Z,95821.59
2023-04-11T08:17:46.642Z,95824.50
2023-04-11T08:19:49.390Z,95828.44
2023-04-11T08:21:52.750Z,95827.47
2023-04-11T08:23:55.891Z,95826.09
2023-04-11T08:25:58.916Z,95771.44
2023-04-11T08:28:02.462Z,95843.47
2023-04-11T08:30:06.759Z,95521.47
2023-04-11T08:32:10.879Z,95828.47
2023-04-11T08:34:14.047Z,95827.47
2023-04-11T08:36:16.931Z,95819.47
2023-04-11T08:38:19.741Z,95819.94
2023-04-11T08:40:22.486Z,95822.13
2023-04-11T08:42:27.276Z,95832.22
2023-04-11T08:44:30.032Z,95828.63
2023-04-11T08:46:34.410Z,95839.44
2023-04-11T08:48:39.647Z,95765.59
2023-04-11T08:50:42.805Z,95837.50
2023-04-11T08:52:47.718Z,95836.66
2023-04-11T08:54:54.719Z,95827.31
2023-04-11T08:56:57.424Z,95825.59
2023-04-11T08:59:00.160Z,95815.09
2023-04-11T09:01:26.043Z,95817.25
2023-04-11T09:03:28.791Z,95819.88
2023-04-11T09:05:35.018Z,95843.13
2023-04-11T09:07:49.912Z,95830.19
2023-04-11T09:09:52.679Z,95844.38
2023-04-11T09:11:56.341Z,95714.78
2023-04-11T09:14:09.445Z,95825.03
2023-04-11T09:16:14.115Z,95791.88
2023-04-11T09:18:33.674Z,95839.84
2023-04-11T09:20:37.807Z,95828.78
2023-04-11T09:22:43.030Z,95831.31
2023-04-11T09:24:48.072Z,95834.72
2023-04-11T09:26:51.974Z,95796.47
2023-04-11T09:28:54.878Z,95827.53
2023-04-11T09:30:57.869Z,95828.69
2023-04-11T09:33:18.186Z,95828.53
2023-04-11T09:35:24.824Z,95786.13
2023-04-11T09:37:42.278Z,95818.09
2023-04-11T09:39:45.477Z,95838.34
2023-04-11T09:41:48.633Z,95833.75
2023-04-11T09:43:52.203Z,95829.81
2023-04-11T09:46:10.807Z,95770.28
2023-04-11T09:48:15.959Z,95815.09
2023-04-11T09:50:19.426Z,95836.72
2023-04-11T09:52:22.163Z,95843.41
2023-04-11T09:54:28.134Z,95847.38
2023-04-11T09:56:33.932Z,95864.47
2023-04-11T09:58:38.271Z,95844.31
2023-04-11T10:00:42.351Z,95722.91
2023-04-11T10:02:46.561Z,95822.78
2023-04-11T10:04:50.121Z,95833.59
2023-04-11T10:07:04.360Z,95841.72
2023-04-11T10:09:09.596Z,95827.00
2023-04-11T10:11:18.443Z,95832.78
2023-04-11T10:13:41.275Z,95839.69
2023-04-11T10:16:08.470Z,95858.28
2023-04-11T10:18:12.734Z,95850.03
2023-04-11T10:20:46.238Z,95841.84
2023-04-11T10:23:01.910Z,95850.72
2023-04-11T10:25:17.414Z,95747.81
2023-04-11T10:27:47.076Z,95866.66
2023-04-11T10:29:52.514Z,95856.00
2023-04-11T10:32:09.746Z,95750.34
2023-04-11T10:34:13.807Z,95849.66
2023-04-11T10:36:16.606Z,95839.78
2023-04-11T10:38:48.217Z,95825.84
2023-04-11T10:41:18.982Z,95831.00
2023-04-11T10:43:23.186Z,95805.34
2023-04-11T10:45:27.095Z,95815.22
2023-04-11T10:47:29.902Z,95831.81
2023-04-11T10:49:38.027Z,95846.16
2023-04-11T10:51:40.875Z,95826.34
2023-04-11T10:53:44.113Z,95846.38
2023-04-11T10:55:48.789Z,95839.03
2023-04-11T10:58:08.456Z,95847.97
2023-04-11T11:00:16.427Z,95846.44
2023-04-11T11:02:21.679Z,95836.63
2023-04-11T11:04:32.079Z,95830.19
2023-04-11T11:06:46.083Z,95833.06
2023-04-11T11:08:49.920Z,95842.56
2023-04-11T11:10:52.633Z,95839.38
2023-04-11T11:12:56.019Z,95844.00
2023-04-11T11:14:58.817Z,95852.44
2023-04-11T11:17:03.578Z,95842.19
2023-04-11T11:19:06.584Z,95777.91
2023-04-11T11:21:14.160Z,95843.44
2023-04-11T11:23:19.885Z,95830.00
2023-04-11T11:25:22.666Z,95847.00
2023-04-11T11:27:26.080Z,95850.41
2023-04-11T11:29:33.735Z,95843.75
2023-04-11T11:31:39.232Z,95847.19
2023-04-11T11:33:43.490Z,95870.84
2023-04-11T11:35:52.806Z,95655.44
2023-04-11T11:37:56.371Z,95840.84
2023-04-11T11:39:59.244Z,95863.38
2023-04-11T11:42:03.327Z,95843.78
2023-04-11T11:44:06.965Z,95851.91
2023-04-11T11:46:12.051Z,95681.88
2023-04-11T11:48:21.697Z,95853.88
2023-04-11T11:50:31.265Z,95847.38
2023-04-11T11:52:35.118Z,95856.75
2023-04-11T11:54:44.969Z,95847.53
2023-04-11T11:56:51.769Z,95698.22
2023-04-11T11:58:54.506Z,95845.56
2023-04-11T12:00:57.273Z,95841.81
2023-04-11T12:03:00.821Z,95853.78
2023-04-11T12:05:06.287Z,95860.63
2023-04-11T12:07:11.024Z,95858.44
2023-04-11T12:09:13.785Z,95868.91
2023-04-11T12:11:16.797Z,95849.53
2023-04-11T12:13:22.150Z,95858.47
2023-04-11T12:15:25.238Z,95841.94
2023-04-11T12:17:34.799Z,95849.66
2023-04-11T12:19:42.799Z,95835.63
2023-04-11T12:21:45.538Z,95856.72
2023-04-11T12:23:49.585Z,95848.84
2023-04-11T12:25:52.365Z,95840.13
2023-04-11T12:27:55.335Z,95715.09
2023-04-11T12:29:58.037Z,95875.97
2023-04-11T12:32:00.729Z,95847.81
2023-04-11T12:34:03.801Z,95837.88
2023-04-11T12:36:07.733Z,95864.00
2023-04-11T12:38:11.946Z,95846.22
2023-04-11T12:40:19.304Z,95855.22
2023-04-11T12:42:26.728Z,95852.50
2023-04-11T12:44:29.969Z,95853.25
2023-04-11T12:46:33.608Z,95850.34
2023-04-11T12:48:36.529Z,95853.59
2023-04-11T12:50:39.262Z,95845.75
2023-04-11T12:52:42.254Z,95844.69
2023-04-11T12:54:44.999Z,95856.84
2023-04-11T12:56:49.058Z,95833.63
2023-04-11T12:58:51.765Z,95843.84
2023-04-11T13:00:54.444Z,95854.84
2023-04-11T13:02:57.973Z,95847.78
2023-04-11T13:05:06.280Z,95850.94
2023-04-11T13:07:10.007Z,95831.22
2023-04-11T13:09:13.273Z,95848.75
2023-04-11T13:11:16.044Z,95848.75
2023-04-11T13:13:20.114Z,95852.78
2023-04-11T13:15:22.852Z,95851.94
2023-04-11T13:17:25.740Z,95855.97
2023-04-11T13:19:28.498Z,95847.38
2023-04-11T13:21:32.547Z,95851.72
2023-04-11T13:23:36.368Z,95861.25
2023-04-11T13:25:39.096Z,95852.94
2023-04-11T13:27:42.300Z,95844.69
2023-04-11T13:29:46.350Z,95842.97
2023-04-11T13:31:49.285Z,95852.97
2023-04-11T13:33:52.055Z,95862.47
2023-04-11T13:35:54.784Z,95867.31
2023-04-11T13:37:57.729Z,95855.22
2023-04-11T13:40:00.502Z,95801.22
2023-04-11T13:42:03.276Z,95845.59
2023-04-11T13:44:06.162Z,95855.19
2023-04-11T13:46:11.298Z,95837.63
2023-04-11T13:48:14.153Z,95844.50
2023-04-11T13:50:17.729Z,95855.59
2023-04-11T13:52:22.111Z,95774.22
2023-04-11T13:54:24.927Z,95835.00
2023-04-11T13:56:28.021Z,95843.06
2023-04-11T13:58:31.091Z,95844.63
2023-04-11T14:00:36.127Z,95806.69
2023-04-11T14:02:40.723Z,95841.72
2023-04-11T14:04:43.919Z,95827.94
2023-04-11T14:06:46.655Z,95829.41
2023-04-11T14:08:50.027Z,95790.47
2023-04-11T14:10:53.728Z,95822.72
2023-04-11T14:12:56.482Z,95759.25
2023-04-11T14:14:59.166Z,95829.66
2023-04-11T14:17:01.908Z,95812.53
2023-04-11T14:19:06.151Z,95823.06
2023-04-11T14:21:09.330Z,95773.41
2023-04-11T14:23:13.788Z,95765.81
2023-04-11T14:25:16.644Z,95814.06
2023-04-11T14:27:19.447Z,95834.47
2023-04-11T14:29:23.053Z,95782.44
2023-04-11T14:31:26.027Z,95786.16
2023-04-11T14:33:28.894Z,95822.72
2023-04-11T14:35:32.972Z,95822.59
2023-04-11T14:37:36.544Z,95834.84
2023-04-11T14:39:39.937Z,95833.13
2023-04-11T14:41:42.690Z,95835.00
2023-04-11T14:43:45.435Z,95822.09
2023-04-11T14:45:48.595Z,95631.03
2023-04-11T14:47:51.636Z,95818.44
2023-04-11T14:49:54.452Z,95714.03
2023-04-11T14:51:58.720Z,95840.19
2023-04-11T14:54:01.714Z,95817.69
2023-04-11T14:56:06.055Z,95803.69
2023-04-11T14:58:08.874Z,95755.59
2023-04-11T15:00:17.966Z,95800.75
2023-04-11T15:02:20.874Z,95803.34
2023-04-11T15:04:23.888Z,95778.41
2023-04-11T15:06:27.407Z,95790.94
2023-04-11T15:08:32.068Z,95799.66
2023-04-11T15:10:34.955Z,95798.63
2023-04-11T15:12:37.744Z,95806.22
2023-04-11T15:14:40.490Z,95784.00
2023-04-11T15:16:43.193Z,95801.16
2023-04-11T15:18:46.091Z,95800.06
2023-04-11T15:20:48.845Z,95650.44
2023-04-11T15:22:51.580Z,95791.75
2023-04-11T15:24:55.705Z,95764.16
2023-04-11T15:26:58.425Z,95789.09
2023-04-11T15:29:01.435Z,95794.97
2023-04-11T15:31:05.848Z,95789.34
2023-04-11T15:33:08.731Z,95786.13
2023-04-11T15:35:12.184Z,95804.41
2023-04-11T15:37:15.505Z,95779.72
2023-04-11T15:39:18.254Z,95764.09
2023-04-11T15:41:22.407Z,95782.50
2023-04-11T15:43:25.379Z,95778.00
2023-04-11T15:45:28.153Z,95780.41
2023-04-11T15:47:31.452Z,95734.03
2023-04-11T15:49:34.679Z,95671.19
2023-04-11T15:51:38.183Z,95778.75
2023-04-11T15:53:41.019Z,95778.75
2023-04-11T15:55:44.945Z,95724.25
2023-04-11T15:57:49.873Z,95776.16
2023-04-11T15:59:52.617Z,95765.22
2023-04-11T16:01:55.545Z,95768.53
2023-04-11T16:03:58.919Z,95761.63
2023-04-11T16:06:02.935Z,95771.19
2023-04-11T16:08:05.693Z,95771.44
2023-04-11T16:10:09.554Z,95732.03
2023-04-11T16:12:12.422Z,95768.03
2023-04-11T16:14:16.762Z,95662.72
2023-04-11T16:16:19.594Z,95769.91
2023-04-11T16:18:22.339Z,95767.13
2023-04-11T16:20:25.089Z,95759.00
2023-04-11T16:22:27.912Z,95768.56
2023-04-11T16:24:31.097Z,95753.06
2023-04-11T16:26:33.832Z,95709.34
2023-04-11T16:28:36.537Z,95723.47
2023-04-11T16:30:40.801Z,95752.50
2023-04-11T16:32:43.614Z,95755.94
2023-04-11T16:34:46.406Z,95764.03
2023-04-11T16:36:49.319Z,95754.91
2023-04-11T16:38:52.083Z,95758.69
2023-04-11T16:40:55.001Z,95758.34
2023-04-11T16:42:57.776Z,95694.63
2023-04-11T16:45:00.497Z,95756.19
2023-04-11T16:47:04.712Z,95754.78
2023-04-11T16:49:07.677Z,95466.00
2023-04-11T16:51:11.621Z,95753.47
2023-04-11T16:53:14.334Z,95667.72
2023-04-11T16:55:17.875Z,95756.97
2023-04-11T16:57:20.702Z,95703.59
2023-04-11T16:59:24.001Z,95744.03
2023-04-11T17:01:26.719Z,95681.72
2023-04-11T17:03:31.165Z,95750.75
2023-04-11T17:05:34.101Z,95767.22
2023-04-11T17:07:36.805Z,95739.19
2023-04-11T17:09:39.496Z,95697.38
2023-04-11T17:11:42.157Z,95702.50
2023-04-11T17:13:45.915Z,95732.16
2023-04-11T17:15:48.556Z,95733.50
2023-04-11T17:17:51.371Z,95726.75
2023-04-11T17:19:55.599Z,95717.06
2023-04-11T17:21:58.587Z,95713.81
2023-04-11T17:24:01.562Z,95723.25
2023-04-11T17:26:04.549Z,95728.59
2023-04-11T17:28:07.289Z,95735.66
2023-04-11T17:30:11.985Z,95622.84
2023-04-11T17:32:14.735Z,95660.38
2023-04-11T17:34:17.517Z,95747.75
2023-04-11T17:36:21.721Z,95733.44
2023-04-11T17:38:24.501Z,95684.94
2023-04-11T17:40:27.292Z,95697.41
2023-04-11T17:42:29.983Z,95730.97
2023-04-11T17:44:32.765Z,95726.03
2023-04-11T17:46:35.697Z,95700.72
2023-04-11T17:48:38.431Z,95725.44
2023-04-11T17:50:41.117Z,95714.09
2023-04-11T17:52:46.132Z,95717.94
2023-04-11T17:54:48.893Z,95731.00
2023-04-11T17:56:52.581Z,95733.75
2023-04-11T17:58:56.006Z,95721.41
2023-04-11T18:00:58.701Z,95734.59
2023-04-11T18:03:02.907Z,95735.09
2023-04-11T18:05:13.221Z,95711.13
2023-04-11T18:07:24.460Z,95685.50
2023-04-11T18:09:31.772Z,95699.28
2023-04-11T18:11:34.869Z,95727.31
2023-04-11T18:13:37.559Z,95723.25
2023-04-11T18:15:40.372Z,95723.53
2023-04-11T18:17:44.567Z,95714.84
2023-04-11T18:19:47.342Z,95709.97
2023-04-11T18:21:50.651Z,95620.16
2023-04-11T18:23:53.370Z,95708.09
2023-04-11T18:25:57.466Z,95717.19
2023-04-11T18:28:00.204Z,95724.25
2023-04-11T18:30:04.514Z,95720.34
2023-04-11T18:32:07.286Z,95723.81
2023-04-11T18:34:10.189Z,95628.38
2023-04-11T18:36:13.573Z,95731.91
2023-04-11T18:38:16.517Z,95731.84
2023-04-11T18:40:19.605Z,95730.16
2023-04-11T18:42:23.839Z,95723.28
2023-04-11T18:44:26.607Z,95738.25
2023-04-11T18:46:29.430Z,95746.19
2023-04-11T18:48:32.194Z,95745.13
2023-04-11T18:50:38.669Z,95743.91
2023-04-11T18:52:42.505Z,95742.19
2023-04-11T18:54:45.941Z,95611.50
2023-04-11T18:56:50.863Z,95734.44
2023-04-11T18:59:04.320Z,95729.16
2023-04-11T19:01:16.419Z,95734.19
2023-04-11T19:03:20.736Z,95738.75
2023-04-11T19:05:25.526Z,95704.19
2023-04-11T19:07:28.411Z,95645.44
2023-04-11T19:09:31.100Z,95731.59
2023-04-11T19:11:34.964Z,95725.56
2023-04-11T19:13:37.704Z,95730.63
2023-04-11T19:15:42.447Z,95723.75
2023-04-11T19:17:45.232Z,95725.53
2023-04-11T19:19:48.136Z,95703.53
2023-04-11T19:21:51.521Z,95705.47
2023-04-11T19:23:54.512Z,95711.00
2023-04-11T19:25:57.337Z,95713.97
2023-04-11T19:28:00.578Z,95709.47
2023-04-11T19:30:03.489Z,95708.66
2023-04-11T19:32:08.826Z,95708.66
2023-04-11T19:34:11.995Z,95679.38
2023-04-11T19:36:14.881Z,95621.91
2023-04-11T19:38:17.616Z,95711.59
2023-04-11T19:40:23.185Z,95700.56
2023-04-11T19:42:26.068Z,95691.94
2023-04-11T19:44:30.435Z,95687.34
2023-04-11T19:46:33.190Z,95341.75
2023-04-11T19:48:37.291Z,95464.22
2023-04-11T19:50:40.064Z,95681.66
2023-04-11T19:52:43.837Z,95681.31
2023-04-11T19:54:46.705Z,95681.59
2023-04-11T19:56:49.478Z,95669.56
2023-04-11T19:58:52.362Z,95667.63
2023-04-11T20:00:55.281Z,95672.44
2023-04-11T20:02:58.222Z,95676.44
2023-04-11T20:05:02.436Z,95628.22
2023-04-11T20:07:05.151Z,95621.66
2023-04-11T20:09:07.863Z,95668.09
2023-04-11T20:11:15.518Z,95643.56
2023-04-11T20:13:18.278Z,95663.47
2023-04-11T20:15:21.184Z,95665.28
2023-04-11T20:17:23.957Z,95661.50
2023-04-11T20:19:29.559Z,95635.09
2023-04-11T20:21:33.827Z,95657.19
2023-04-11T20:23:37.028Z,95656.16
2023-04-11T20:25:39.780Z,95643.66
2023-04-11T20:27:43.726Z,95642.47
2023-04-11T20:29:46.457Z,95652.19
2023-04-11T20:31:49.231Z,95628.44
2023-04-11T20:33:52.119Z,95644.13
2023-04-11T20:35:55.817Z,95643.31
2023-04-11T20:38:00.298Z,95646.88
2023-04-11T20:40:06.490Z,95430.91
2023-04-11T20:42:10.804Z,95641.91
2023-04-11T20:44:17.596Z,95610.66
2023-04-11T20:46:21.609Z,95619.97
2023-04-11T20:48:25.870Z,95578.22
2023-04-11T20:50:33.249Z,95617.41
2023-04-11T20:52:36.756Z,95615.56
2023-04-11T20:54:41.100Z,95619.53
2023-04-11T20:56:44.025Z,95603.63
2023-04-11T20:58:46.981Z,95609.00
2023-04-11T21:00:49.698Z,95605.00
2023-04-11T21:02:53.079Z,95349.19
2023-04-11T21:04:56.411Z,95600.22
2023-04-11T21:06:59.126Z,95570.72
2023-04-11T21:09:02.588Z,95598.56
2023-04-11T21:11:07.021Z,95590.50
2023-04-11T21:13:09.772Z,95544.09
2023-04-11T21:15:12.925Z,95588.63
2023-04-11T21:17:15.714Z,95461.59
2023-04-11T21:19:18.687Z,95581.44
2023-04-11T21:21:21.430Z,95578.72
2023-04-11T21:23:24.203Z,95545.72
2023-04-11T21:25:27.200Z,95567.38
2023-04-11T21:27:31.345Z,95534.09
2023-04-11T21:29:34.088Z,95545.69
2023-04-11T21:31:36.854Z,95568.16
2023-04-11T21:33:39.606Z,95563.53
2023-04-11T21:35:42.487Z,95564.09
2023-04-11T21:37:47.148Z,95562.22
2023-04-11T21:39:51.797Z,95555.44
2023-04-11T21:41:54.606Z,95541.38
2023-04-11T21:43:59.022Z,95545.63
2023-04-11T21:46:01.949Z,95536.47
2023-04-11T21:48:04.828Z,95491.75
2023-04-11T21:50:09.064Z,95430.28
2023-04-11T21:52:11.815Z,95529.75
2023-04-11T21:54:14.608Z,95527.91
2023-04-11T21:56:17.405Z,95513.50
2023-04-11T21:58:29.041Z,95503.06
2023-04-11T22:00:33.918Z,95501.19
2023-04-11T22:02:36.897Z,95413.25
2023-04-11T22:04:55.698Z,95443.34
2023-04-11T22:07:02.624Z,95461.91
2023-04-11T22:09:05.709Z,95371.59
2023-04-11T22:11:10.496Z,95414.38
2023-04-11T22:13:15.114Z,95339.81
2023-04-11T22:15:18.366Z,95413.63
2023-04-11T22:17:23.726Z,95505.63
2023-04-11T22:19:28.528Z,95484.00
2023-04-11T22:21:32.465Z,95369.44
2023-04-11T22:23:35.946Z,95527.59
2023-04-11T22:25:38.763Z,95494.59
2023-04-11T22:27:41.558Z,95494.84
2023-04-11T22:29:45.409Z,95493.50
2023-04-11T22:31:49.659Z,95388.53
2023-04-11T22:33:54.255Z,95449.50
2023-04-11T22:36:00.287Z,95480.53
2023-04-11T22:38:03.909Z,95341.25
2023-04-11T22:40:08.380Z,95460.44
2023-04-11T22:42:12.629Z,95459.34
2023-04-11T22:44:15.516Z,95470.59
2023-04-11T22:46:18.342Z,95468.41
2023-04-11T22:48:21.239Z,95469.97
2023-04-11T22:50:25.379Z,95474.50
2023-04-11T22:52:30.375Z,95391.69
2023-04-11T22:54:33.168Z,95441.63
2023-04-11T22:56:35.953Z,95471.97
2023-04-11T22:58:39.720Z,95461.75
2023-04-11T23:00:43.645Z,95475.97
2023-04-11T23:02:47.198Z,95457.66
2023-04-11T23:04:50.238Z,95457.16
2023-04-11T23:06:54.643Z,95448.50
2023-04-11T23:08:57.757Z,95447.16
2023-04-11T23:11:00.580Z,95456.25
2023-04-11T23:13:03.656Z,95454.53
2023-04-11T23:15:07.415Z,95386.41
2023-04-11T23:17:10.184Z,95444.75
2023-04-11T23:19:13.463Z,95461.16
2023-04-11T23:21:16.312Z,95443.94
2023-04-11T23:23:20.805Z,95156.97
2023-04-11T23:25:23.744Z,95453.34
2023-04-11T23:27:32.771Z,95449.88
2023-04-11T23:29:38.593Z,95442.34
2023-04-11T23:31:41.531Z,95439.00
2023-04-11T23:33:44.686Z,95411.53
2023-04-11T23:35:47.529Z,95432.63
2023-04-11T23:37:50.896Z,95432.88
2023-04-11T23:39:55.544Z,95108.38
2023-04-11T23:41:58.361Z,95428.28
2023-04-11T23:44:01.156Z,95420.78
2023-04-11T23:46:03.934Z,95423.63
2023-04-11T23:48:07.447Z,95417.16
2023-04-11T23:50:12.148Z,95416.84
2023-04-11T23:52:15.040Z,95416.78
2023-04-11T23:54:17.818Z,95414.69
2023-04-11T23:56:23.013Z,95417.56
2023-04-11T23:58:25.904Z,95407.84
